createdAt,value
2018-11-21T00:01:22.494Z,16.88
2018-11-21T00:04:12.104Z,16.85
2018-11-21T00:07:01.511Z,16.92
2018-11-21T00:09:50.583Z,16.93
2018-11-21T00:12:40.296Z,16.91
2018-11-21T00:15:29.718Z,16.88
2018-11-21T00:18:19.213Z,16.87
2018-11-21T00:21:08.938Z,16.89
2018-11-21T00:23:58.317Z,16.92
2018-11-21T00:26:47.765Z,16.96
2018-11-21T00:29:37.459Z,16.92
2018-11-21T00:32:27.581Z,16.98
2018-11-21T00:35:17.174Z,17.05
2018-11-21T00:38:06.819Z,17.13
2018-11-21T00:40:56.710Z,17.10
2018-11-21T00:43:46.678Z,17.04
2018-11-21T00:46:36.590Z,16.99
2018-11-21T00:49:25.894Z,16.92
2018-11-21T00:52:15.338Z,16.98
2018-11-21T00:55:04.475Z,17.05
2018-11-21T00:57:53.613Z,17.09
2018-11-21T01:00:42.771Z,17.06
2018-11-21T01:03:32.460Z,17.02
2018-11-21T01:06:21.956Z,16.99
2018-11-21T01:09:11.539Z,16.95
2018-11-21T01:12:01.153Z,16.98
2018-11-21T01:14:50.766Z,16.99
2018-11-21T01:17:40.370Z,17.06
2018-11-21T01:20:29.912Z,17.08
2018-11-21T01:23:19.791Z,17.05
2018-11-21T01:26:09.749Z,16.98
2018-11-21T01:28:59.031Z,16.97
2018-11-21T01:31:48.503Z,17.05
2018-11-21T01:34:37.611Z,17.04
2018-11-21T01:37:27.063Z,17.02
2018-11-21T01:40:16.478Z,17.04
2018-11-21T01:43:05.949Z,16.95
2018-11-21T01:45:55.447Z,16.90
2018-11-21T01:48:45.137Z,16.90
2018-11-21T01:51:34.600Z,16.89
2018-11-21T01:54:23.963Z,16.95
2018-11-21T01:57:13.550Z,16.99
2018-11-21T02:00:03.614Z,16.96
2018-11-21T02:02:53.221Z,16.98
2018-11-21T02:05:43.089Z,17.00
2018-11-21T02:08:32.525Z,17.02
2018-11-21T02:11:22.146Z,17.04
2018-11-21T02:14:11.333Z,17.04
2018-11-21T02:17:00.589Z,16.93
2018-11-21T02:19:49.919Z,16.93
2018-11-21T02:22:39.201Z,16.75
2018-11-21T02:25:28.979Z,16.58
2018-11-21T02:28:18.639Z,16.73
2018-11-21T02:31:08.096Z,16.65
2018-11-21T02:33:57.320Z,16.70
2018-11-21T02:36:46.627Z,16.67
2018-11-21T02:39:36.130Z,16.66
2018-11-21T02:42:25.667Z,16.67
2018-11-21T02:45:15.096Z,16.65
2018-11-21T02:48:04.483Z,16.63
2018-11-21T02:50:53.738Z,16.63
2018-11-21T02:53:43.440Z,16.63
2018-11-21T02:57:10.148Z,16.59
2018-11-21T03:00:05.189Z,16.57
2018-11-21T03:02:54.628Z,16.78
2018-11-21T03:05:43.970Z,16.77
2018-11-21T03:08:33.397Z,16.61
2018-11-21T03:11:22.983Z,16.55
2018-11-21T03:14:12.729Z,16.46
2018-11-21T03:17:02.564Z,16.39
2018-11-21T03:19:52.059Z,16.25
2018-11-21T03:22:41.575Z,16.14
2018-11-21T03:25:30.992Z,15.92
2018-11-21T03:28:20.710Z,15.76
2018-11-21T03:31:11.016Z,15.73
2018-11-21T03:34:00.361Z,15.67
2018-11-21T03:36:51.174Z,15.65
2018-11-21T03:39:40.547Z,15.69
2018-11-21T03:42:30.055Z,15.71
2018-11-21T03:45:21.595Z,15.70
2018-11-21T03:48:10.861Z,15.75
2018-11-21T03:51:00.263Z,15.76
2018-11-21T03:53:50.157Z,15.77
2018-11-21T03:56:40.306Z,15.54
2018-11-21T03:59:31.582Z,15.65
2018-11-21T04:02:21.052Z,15.72
2018-11-21T04:05:11.170Z,15.69
2018-11-21T04:08:00.736Z,15.69
2018-11-21T04:10:50.429Z,15.73
2018-11-21T04:13:40.089Z,15.69
2018-11-21T04:16:29.994Z,15.73
2018-11-21T04:19:19.437Z,15.68
2018-11-21T04:22:09.076Z,15.67
2018-11-21T04:24:58.627Z,15.65
2018-11-21T04:27:47.840Z,15.62
2018-11-21T04:30:37.533Z,15.54
2018-11-21T04:33:27.090Z,15.54
2018-11-21T04:36:19.494Z,15.51
2018-11-21T04:39:10.529Z,15.49
2018-11-21T04:42:00.408Z,15.55
2018-11-21T04:44:49.843Z,15.53
2018-11-21T04:47:41.020Z,15.52
2018-11-21T04:50:30.859Z,15.52
2018-11-21T04:53:20.289Z,15.53
2018-11-21T04:56:09.761Z,15.57
2018-11-21T04:58:59.205Z,15.46
2018-11-21T05:01:48.600Z,15.43
2018-11-21T05:04:38.070Z,15.43
2018-11-21T05:07:27.301Z,15.48
2018-11-21T05:10:16.514Z,15.49
2018-11-21T05:13:05.906Z,15.52
2018-11-21T05:15:55.459Z,15.48
2018-11-21T05:18:45.176Z,15.46
2018-11-21T05:21:34.544Z,15.43
2018-11-21T05:24:23.471Z,15.39
2018-11-21T05:27:13.245Z,15.40
2018-11-21T05:30:02.716Z,15.37
2018-11-21T05:32:52.026Z,15.39
2018-11-21T05:35:42.502Z,15.41
2018-11-21T05:38:31.978Z,15.44
2018-11-21T05:41:21.588Z,15.40
2018-11-21T05:44:11.018Z,15.43
2018-11-21T05:47:00.665Z,15.39
2018-11-21T05:49:49.819Z,15.36
2018-11-21T05:52:39.594Z,15.43
2018-11-21T05:55:29.108Z,15.48
2018-11-21T05:58:19.085Z,15.49
2018-11-21T06:01:08.976Z,15.46
2018-11-21T06:03:58.188Z,15.22
2018-11-21T06:06:47.486Z,15.12
2018-11-21T06:09:37.200Z,15.17
2018-11-21T06:12:27.017Z,15.20
2018-11-21T06:15:16.382Z,15.30
2018-11-21T06:18:06.537Z,15.35
2018-11-21T06:20:56.026Z,15.40
2018-11-21T06:23:45.336Z,15.49
2018-11-21T06:26:34.433Z,15.75
2018-11-21T06:29:23.872Z,16.46
2018-11-21T06:32:13.742Z,17.35
2018-11-21T06:35:03.525Z,17.96
2018-11-21T06:37:53.221Z,18.33
2018-11-21T06:40:42.948Z,18.34
2018-11-21T06:43:32.358Z,18.73
2018-11-21T06:46:21.538Z,19.41
2018-11-21T06:49:11.390Z,20.14
2018-11-21T06:52:00.679Z,21.36
2018-11-21T06:54:50.183Z,22.53
2018-11-21T06:57:39.784Z,23.61
2018-11-21T07:00:29.420Z,24.55
2018-11-21T07:03:19.850Z,25.16
2018-11-21T07:06:09.773Z,26.16
2018-11-21T07:08:59.569Z,26.22
2018-11-21T07:11:49.383Z,26.18
2018-11-21T07:14:39.264Z,24.29
2018-11-21T07:17:29.564Z,24.51
2018-11-21T07:20:20.070Z,23.58
2018-11-21T07:23:09.603Z,22.66
2018-11-21T07:25:59.053Z,23.36
2018-11-21T07:28:48.733Z,22.73
2018-11-21T07:31:38.130Z,22.92
2018-11-21T07:34:28.592Z,23.58
2018-11-21T07:37:18.836Z,23.77
2018-11-21T07:40:11.986Z,24.89
2018-11-21T07:43:01.866Z,25.63
2018-11-21T07:45:52.324Z,26.26
2018-11-21T07:48:42.473Z,26.73
2018-11-21T07:51:32.669Z,27.16
2018-11-21T07:54:22.838Z,28.08
2018-11-21T07:57:39.687Z,26.94
2018-11-21T08:01:05.787Z,29.05
2018-11-21T08:04:12.934Z,30.18
2018-11-21T08:07:15.489Z,30.76
2018-11-21T08:10:31.628Z,30.15
2018-11-21T08:13:52.969Z,30.45
2018-11-21T08:17:20.102Z,29.94
2018-11-21T08:20:35.297Z,30.61
2018-11-21T08:23:42.985Z,31.25
2018-11-21T08:26:48.441Z,30.81
2018-11-21T08:29:38.232Z,29.08
2018-11-21T08:32:28.137Z,27.76
2018-11-21T08:35:18.303Z,26.70
2018-11-21T08:38:08.616Z,25.91
2018-11-21T08:40:58.746Z,25.16
2018-11-21T08:43:48.572Z,25.22
2018-11-21T08:46:38.749Z,24.55
2018-11-21T08:49:28.249Z,24.21
2018-11-21T08:52:17.448Z,23.79
2018-11-21T08:55:09.109Z,23.37
2018-11-21T08:57:58.403Z,22.90
2018-11-21T09:00:48.258Z,22.80
2018-11-21T09:03:38.018Z,22.62
2018-11-21T09:06:27.103Z,22.68
2018-11-21T09:09:16.484Z,22.73
2018-11-21T09:12:08.706Z,22.79
2018-11-21T09:14:56.223Z,22.70
2018-11-21T09:17:46.508Z,22.70
2018-11-21T09:20:36.200Z,22.63
2018-11-21T09:23:25.860Z,22.53
2018-11-21T09:26:15.323Z,22.44
2018-11-21T09:29:04.691Z,22.02
2018-11-21T09:31:54.489Z,21.94
2018-11-21T09:34:44.283Z,21.86
2018-11-21T09:37:33.945Z,21.44
2018-11-21T09:40:24.358Z,21.35
2018-11-21T09:43:13.971Z,21.39
2018-11-21T09:46:03.606Z,21.42
2018-11-21T09:48:52.954Z,21.39
2018-11-21T09:51:42.261Z,21.42
2018-11-21T09:54:32.114Z,21.52
2018-11-21T09:57:21.720Z,21.49
2018-11-21T10:00:49.122Z,21.50
2018-11-21T10:03:39.571Z,21.28
2018-11-21T10:06:31.759Z,21.32
2018-11-21T10:10:14.632Z,21.29
2018-11-21T10:13:07.045Z,21.21
2018-11-21T10:16:01.102Z,21.21
2018-11-21T10:18:53.758Z,21.16
2018-11-21T10:21:45.873Z,21.26
2018-11-21T10:24:38.484Z,21.35
2018-11-21T10:27:30.500Z,21.24
2018-11-21T10:30:23.115Z,21.25
2018-11-21T10:33:17.481Z,21.15
2018-11-21T10:36:10.224Z,21.10
2018-11-21T10:39:02.399Z,21.11
2018-11-21T10:41:55.133Z,21.08
2018-11-21T10:44:47.351Z,21.06
2018-11-21T10:47:39.666Z,20.80
2018-11-21T10:50:32.096Z,20.80
2018-11-21T10:53:24.299Z,20.94
2018-11-21T10:56:16.664Z,20.88
2018-11-21T10:59:08.987Z,20.90
2018-11-21T11:02:18.412Z,20.90
2018-11-21T11:05:41.184Z,20.84
2018-11-21T11:08:53.230Z,20.80
2018-11-21T11:12:03.971Z,20.77
2018-11-21T11:15:14.524Z,20.62
2018-11-21T11:18:44.278Z,20.50
2018-11-21T11:21:50.996Z,20.39
2018-11-21T11:24:53.628Z,20.38
2018-11-21T11:28:22.190Z,20.37
2018-11-21T11:31:48.774Z,20.38
2018-11-21T11:35:01.068Z,20.38
2018-11-21T11:38:10.601Z,20.48
2018-11-21T11:41:27.103Z,20.48
2018-11-21T11:44:37.440Z,20.48
2018-11-21T11:47:53.725Z,20.48
2018-11-21T11:51:06.038Z,20.37
2018-11-21T11:54:16.519Z,20.27
2018-11-21T11:57:36.432Z,20.19
2018-11-21T12:00:46.915Z,20.13
2018-11-21T12:04:09.354Z,20.21
2018-11-21T12:07:18.606Z,20.27
2018-11-21T12:10:38.192Z,20.38
2018-11-21T12:13:47.826Z,20.23
2018-11-21T12:17:13.207Z,20.31
2018-11-21T12:20:26.583Z,20.34
2018-11-21T12:23:36.563Z,20.45
2018-11-21T12:26:50.057Z,20.40
2018-11-21T12:29:58.867Z,20.32
2018-11-21T12:33:21.107Z,20.38
2018-11-21T12:36:37.518Z,20.49
2018-11-21T12:39:39.647Z,20.45
2018-11-21T12:42:49.246Z,20.26
2018-11-21T12:49:19.856Z,20.36
2018-11-21T12:52:29.311Z,20.13
2018-11-21T12:55:39.012Z,19.99
2018-11-21T12:58:44.168Z,20.05
2018-11-21T13:01:54.752Z,19.84
2018-11-21T13:05:06.276Z,19.88
2018-11-21T13:08:17.113Z,19.83
2018-11-21T13:11:23.954Z,19.76
2018-11-21T13:14:34.290Z,19.79
2018-11-21T13:17:56.260Z,19.58
2018-11-21T13:21:12.741Z,19.58
2018-11-21T13:24:23.176Z,19.40
2018-11-21T13:27:36.610Z,19.41
2018-11-21T13:30:40.737Z,19.50
2018-11-21T13:34:07.481Z,19.43
2018-11-21T13:37:33.329Z,19.34
2018-11-21T13:40:44.824Z,19.21
2018-11-21T13:43:44.305Z,19.19
2018-11-21T13:47:10.294Z,19.19
2018-11-21T13:50:19.683Z,19.27
2018-11-21T13:53:45.585Z,19.27
2018-11-21T13:56:38.360Z,19.22
2018-11-21T13:59:30.524Z,19.16
2018-11-21T14:02:22.801Z,19.08
2018-11-21T14:05:15.294Z,19.08
2018-11-21T14:08:07.362Z,18.93
2018-11-21T14:10:59.667Z,19.00
2018-11-21T14:13:51.773Z,19.00
2018-11-21T14:16:44.036Z,18.97
2018-11-21T14:19:36.252Z,19.12
2018-11-21T14:22:28.716Z,19.10
2018-11-21T14:25:20.730Z,19.11
2018-11-21T14:28:13.688Z,19.15
2018-11-21T14:31:05.790Z,19.13
2018-11-21T14:33:59.299Z,19.00
2018-11-21T14:36:51.512Z,19.00
2018-11-21T14:39:43.592Z,18.98
2018-11-21T14:42:35.846Z,18.96
2018-11-21T14:45:28.443Z,18.86
2018-11-21T14:48:20.875Z,18.86
2018-11-21T14:51:13.283Z,18.84
2018-11-21T14:54:05.910Z,18.76
2018-11-21T14:56:58.290Z,18.77
2018-11-21T14:59:50.689Z,18.68
2018-11-21T15:02:43.236Z,18.62
2018-11-21T15:05:35.507Z,18.48
2018-11-21T15:08:27.704Z,18.34
2018-11-21T15:11:20.049Z,18.20
2018-11-21T15:14:12.725Z,18.23
2018-11-21T15:17:05.071Z,18.22
2018-11-21T15:19:57.430Z,18.19
2018-11-21T15:22:49.607Z,18.17
2018-11-21T15:25:41.996Z,18.23
2018-11-21T15:28:34.250Z,18.15
2018-11-21T15:31:27.014Z,18.16
2018-11-21T15:34:19.112Z,18.15
2018-11-21T15:37:11.660Z,18.15
2018-11-21T15:40:03.877Z,18.09
2018-11-21T15:42:56.146Z,18.14
2018-11-21T15:45:48.302Z,18.13
2018-11-21T15:48:40.642Z,18.06
2018-11-21T15:51:33.276Z,18.09
2018-11-21T15:54:25.383Z,18.06
2018-11-21T15:57:17.726Z,18.05
2018-11-21T16:00:23.972Z,17.95
2018-11-21T16:03:16.166Z,17.86
2018-11-21T16:06:08.533Z,17.80
2018-11-21T16:09:00.960Z,17.70
2018-11-21T16:11:52.982Z,17.69
2018-11-21T16:14:45.313Z,17.67
2018-11-21T16:17:37.505Z,17.68
2018-11-21T16:20:31.714Z,17.75
2018-11-21T16:23:24.138Z,17.68
2018-11-21T16:26:16.121Z,17.66
2018-11-21T16:29:08.812Z,17.52
2018-11-21T16:32:01.350Z,17.52
2018-11-21T16:34:53.974Z,17.40
2018-11-21T16:37:46.188Z,17.40
2018-11-21T16:40:38.880Z,17.42
2018-11-21T16:43:31.205Z,17.38
2018-11-21T16:46:23.285Z,17.38
2018-11-21T16:49:15.767Z,17.36
2018-11-21T16:52:08.640Z,17.41
2018-11-21T16:55:00.797Z,17.54
2018-11-21T16:57:54.146Z,17.45
2018-11-21T17:00:46.455Z,17.43
2018-11-21T17:03:38.950Z,17.36
2018-11-21T17:06:31.352Z,17.29
2018-11-21T17:09:23.485Z,17.17
2018-11-21T17:12:16.616Z,17.19
2018-11-21T17:15:11.050Z,17.14
2018-11-21T17:18:02.998Z,17.12
2018-11-21T17:20:55.445Z,17.12
2018-11-21T17:23:47.749Z,17.15
2018-11-21T17:26:40.207Z,17.11
2018-11-21T17:29:32.461Z,17.15
2018-11-21T17:32:24.832Z,17.09
2018-11-21T17:35:17.885Z,17.12
2018-11-21T17:38:10.452Z,17.12
2018-11-21T17:41:02.721Z,17.04
2018-11-21T17:43:55.651Z,17.06
2018-11-21T17:46:47.799Z,16.99
2018-11-21T17:49:40.251Z,17.03
2018-11-21T17:52:32.476Z,16.98
2018-11-21T17:55:26.336Z,17.00
2018-11-21T17:58:19.197Z,16.96
2018-11-21T18:01:14.991Z,16.91
2018-11-21T18:04:07.794Z,16.96
2018-11-21T18:07:00.048Z,16.90
2018-11-21T18:09:52.199Z,16.92
2018-11-21T18:12:44.692Z,16.93
2018-11-21T18:15:36.993Z,16.83
2018-11-21T18:18:29.314Z,16.87
2018-11-21T18:21:21.712Z,16.76
2018-11-21T18:24:13.959Z,16.74
2018-11-21T18:27:06.163Z,16.77
2018-11-21T18:29:59.749Z,16.72
2018-11-21T18:32:52.290Z,16.70
2018-11-21T18:35:44.410Z,16.71
2018-11-21T18:38:36.578Z,16.68
2018-11-21T18:41:28.883Z,16.64
2018-11-21T18:44:21.059Z,16.72
2018-11-21T18:47:13.453Z,16.76
2018-11-21T18:50:08.028Z,16.80
2018-11-21T18:52:59.000Z,16.63
2018-11-21T18:55:53.915Z,16.65
2018-11-21T18:59:25.680Z,16.66
2018-11-21T19:02:17.983Z,16.50
2018-11-21T19:05:10.298Z,16.45
2018-11-21T19:08:04.496Z,16.47
2018-11-21T19:10:56.573Z,16.37
2018-11-21T19:13:48.852Z,16.25
2018-11-21T19:16:41.015Z,16.18
2018-11-21T19:19:32.941Z,16.16
2018-11-21T19:22:25.274Z,16.12
2018-11-21T19:25:17.516Z,16.09
2018-11-21T19:28:10.023Z,16.09
2018-11-21T19:31:02.115Z,16.09
2018-11-21T19:33:54.230Z,16.02
2018-11-21T19:36:46.418Z,16.05
2018-11-21T19:39:38.649Z,16.03
2018-11-21T19:42:30.925Z,16.01
2018-11-21T19:45:23.406Z,15.96
2018-11-21T19:48:15.587Z,16.02
2018-11-21T19:51:08.588Z,16.05
2018-11-21T19:54:00.949Z,16.08
2018-11-21T19:56:54.035Z,16.11
2018-11-21T19:59:46.291Z,16.20
2018-11-21T20:02:38.886Z,16.29
2018-11-21T20:05:33.237Z,16.29
2018-11-21T20:08:25.745Z,16.44
2018-11-21T20:11:17.690Z,16.46
2018-11-21T20:14:09.767Z,16.38
2018-11-21T20:17:01.895Z,16.27
2018-11-21T20:19:54.080Z,16.29
2018-11-21T20:22:46.649Z,16.35
2018-11-21T20:25:38.820Z,16.34
2018-11-21T20:28:31.756Z,16.27
2018-11-21T20:31:23.948Z,16.21
2018-11-21T20:34:16.227Z,16.13
2018-11-21T20:37:08.332Z,16.21
2018-11-21T20:40:00.758Z,16.02
2018-11-21T20:42:53.043Z,16.03
2018-11-21T20:45:45.268Z,16.02
2018-11-21T20:48:37.600Z,16.04
2018-11-21T20:51:29.832Z,16.08
2018-11-21T20:54:22.348Z,16.05
2018-11-21T20:57:14.599Z,16.00
2018-11-21T21:00:10.571Z,15.98
2018-11-21T21:03:02.413Z,15.88
2018-11-21T21:05:54.339Z,15.84
2018-11-21T21:08:46.366Z,15.97
2018-11-21T21:11:39.023Z,15.85
2018-11-21T21:14:31.528Z,15.67
2018-11-21T21:17:23.813Z,15.43
2018-11-21T21:20:18.109Z,15.43
2018-11-21T21:23:10.390Z,15.49
2018-11-21T21:26:02.413Z,15.49
2018-11-21T21:28:54.942Z,15.43
2018-11-21T21:31:47.353Z,15.46
2018-11-21T21:34:39.297Z,15.49
2018-11-21T21:37:31.500Z,15.37
2018-11-21T21:40:27.025Z,15.37
2018-11-21T21:43:19.773Z,15.27
2018-11-21T21:46:13.533Z,15.32
2018-11-21T21:49:05.829Z,15.26
2018-11-21T21:51:58.155Z,15.32
2018-11-21T21:54:50.455Z,15.33
2018-11-21T21:58:36.017Z,15.29
2018-11-21T22:01:28.250Z,15.16
2018-11-21T22:04:42.848Z,15.22
2018-11-21T22:12:16.776Z,15.00
2018-11-21T22:15:27.185Z,14.93
2018-11-21T22:18:19.511Z,14.92
2018-11-21T22:21:11.878Z,14.85
2018-11-21T22:24:04.298Z,14.87
2018-11-21T22:26:56.781Z,14.83
2018-11-21T22:29:49.539Z,14.83
2018-11-21T22:32:42.670Z,14.80
2018-11-21T22:35:38.073Z,14.72
2018-11-21T22:38:31.042Z,14.68
2018-11-21T22:41:22.714Z,14.62
2018-11-21T22:44:15.166Z,14.59
2018-11-21T22:47:07.483Z,14.55
2018-11-21T22:49:59.743Z,14.66
2018-11-21T22:52:52.320Z,14.80
2018-11-21T22:55:44.886Z,14.78
2018-11-21T22:58:37.325Z,14.81
2018-11-21T23:01:32.851Z,14.84
2018-11-21T23:04:25.340Z,14.80
2018-11-21T23:07:17.711Z,14.81
2018-11-21T23:10:11.776Z,14.74
2018-11-21T23:13:03.829Z,14.77
2018-11-21T23:15:56.251Z,14.65
2018-11-21T23:18:48.521Z,14.70
2018-11-21T23:21:40.996Z,14.68
2018-11-21T23:24:33.098Z,14.61
2018-11-21T23:27:25.345Z,14.52
2018-11-21T23:30:18.903Z,14.42
2018-11-21T23:33:11.330Z,14.32
2018-11-21T23:36:03.604Z,14.32
2018-11-21T23:38:55.709Z,14.24
2018-11-21T23:41:47.643Z,14.18
2018-11-21T23:44:40.244Z,14.17
2018-11-21T23:47:32.523Z,14.12
2018-11-21T23:50:25.072Z,14.06
2018-11-21T23:53:17.135Z,14.09
2018-11-21T23:56:09.507Z,14.04
2018-11-21T23:59:01.975Z,14.04
